Time;durP1;ratioP1;P1;durP2;ratioP2;P2;SDS_P1;SDS_P2;PMS_P1;PMS_P2;Temp;Humidity;BMP_temperature;BMP_pressure;BME280_temperature;BME280_humidity;BME280_pressure;Samples;Min_cycle;Max_cycle;Signal;HPM_P1;HPM_P2
2021/12/20 00:01:50;;;;;;;13.52;12.00;;;;;;;9.42;47.53;100642.47;5068296;28;20421;-64
2021/12/20 00:04:17;;;;;;;16.10;14.10;;;;;;;9.35;47.73;100646.59;5068695;28;20403;-63
2021/12/20 00:06:44;;;;;;;11.38;10.10;;;;;;;9.45;47.67;100651.13;5068538;28;20470;-63
2021/12/20 00:09:12;;;;;;;11.50;10.32;;;;;;;9.64;47.00;100648.72;5068545;28;20930;-63
2021/12/20 00:11:39;;;;;;;11.35;10.15;;;;;;;9.64;47.12;100646.06;5068065;28;20494;-63
2021/12/20 00:14:06;;;;;;;11.50;10.30;;;;;;;9.60;47.12;100629.59;5068198;28;20418;-62
2021/12/20 00:16:33;;;;;;;11.90;10.68;;;;;;;9.65;47.17;100633.69;5067858;28;20425;-63
2021/12/20 00:19:00;;;;;;;12.05;10.52;;;;;;;9.75;46.86;100642.56;5067768;28;21111;-63
2021/12/20 00:21:27;;;;;;;11.48;10.27;;;;;;;9.63;47.03;100647.03;5068277;28;20441;-63
2021/12/20 00:23:54;;;;;;;11.53;10.03;;;;;;;9.83;46.69;100648.94;5068021;28;21039;-64
2021/12/20 00:26:22;;;;;;;11.25;10.05;;;;;;;9.85;46.50;100654.06;5068296;28;20486;-63
2021/12/20 00:28:49;;;;;;;10.95;9.82;;;;;;;9.78;46.60;100653.72;5067999;28;20407;-63
2021/12/20 00:31:16;;;;;;;11.20;10.10;;;;;;;9.60;46.75;100652.56;5067714;28;20978;-63
2021/12/20 00:33:43;;;;;;;11.00;9.90;;;;;;;9.58;46.69;100649.19;5067743;28;20494;-63
2021/12/20 00:36:10;;;;;;;10.50;9.40;;;;;;;9.53;46.79;100649.56;5067572;28;20494;-63
2021/12/20 00:41:24;;;;;;;10.70;9.70;;;;;;;9.55;46.49;100662.66;5067318;28;20405;-63
2021/12/20 00:43:51;;;;;;;10.85;9.75;;;;;;;9.41;46.86;100661.97;5067598;28;20501;-63
2021/12/20 00:46:18;;;;;;;10.52;9.30;;;;;;;9.33;47.01;100659.09;5067875;28;20919;-64
2021/12/20 00:48:45;;;;;;;10.07;9.07;;;;;;;9.22;47.34;100661.72;5067993;28;20939;-63
2021/12/20 00:51:14;;;;;;;10.20;9.10;;;;;;;9.27;47.20;100667.50;5066840;28;21351;-63
2021/12/20 00:53:41;;;;;;;10.93;9.77;;;;;;;9.32;47.16;100654.75;5067252;28;20421;-64
2021/12/20 00:56:08;;;;;;;11.57;9.80;;;;;;;9.25;47.33;100665.94;5067752;28;20525;-63
2021/12/20 00:58:36;;;;;;;10.70;9.60;;;;;;;9.30;47.25;100666.41;5067393;28;20410;-63
2021/12/20 01:01:06;;;;;;;10.68;9.60;;;;;;;9.42;46.96;100668.91;5067221;28;20456;-63
2021/12/20 01:03:33;;;;;;;10.60;9.40;;;;;;;9.36;47.19;100664.13;5067575;28;20476;-63
2021/12/20 01:06:01;;;;;;;11.50;9.30;;;;;;;9.33;47.22;100667.00;5067820;28;20415;-63
2021/12/20 01:08:31;;;;;;;10.80;9.60;;;;;;;9.20;47.58;100655.69;5067497;28;20463;-63
2021/12/20 01:11:00;;;;;;;10.45;9.35;;;;;;;9.15;47.88;100664.00;5067121;28;20468;-63
2021/12/20 01:13:29;;;;;;;10.73;9.27;;;;;;;9.20;47.71;100655.69;5067110;28;20468;-63
2021/12/20 01:16:01;;;;;;;10.65;9.30;;;;;;;9.08;48.00;100667.22;5067283;28;20415;-63
2021/12/20 01:18:28;;;;;;;9.90;8.90;;;;;;;9.14;47.72;100664.13;5067307;28;20407;-63
2021/12/20 01:20:55;;;;;;;10.03;9.03;;;;;;;9.21;47.78;100675.91;5067353;28;20411;-63
2021/12/20 01:23:22;;;;;;;9.98;8.98;;;;;;;9.17;47.81;100675.28;5067475;28;20438;-63
2021/12/20 01:25:49;;;;;;;10.20;9.10;;;;;;;9.05;48.02;100670.13;5066880;28;20494;-63
2021/12/20 01:28:16;;;;;;;10.73;9.60;;;;;;;9.01;47.84;100664.22;5067574;28;20436;-63
2021/12/20 01:30:44;;;;;;;10.95;9.07;;;;;;;9.00;48.11;100676.59;5067429;28;20893;-64
2021/12/20 01:33:13;;;;;;;9.80;8.80;;;;;;;9.18;47.81;100668.19;5070255;28;20416;-63
2021/12/20 01:35:41;;;;;;;10.07;9.07;;;;;;;9.01;48.17;100678.28;5071076;28;21130;-64
2021/12/20 01:38:09;;;;;;;10.93;9.18;;;;;;;9.01;48.28;100675.63;5056033;28;21003;-63
2021/12/20 01:40:37;;;;;;;9.85;8.85;;;;;;;8.94;48.20;100665.66;5071078;28;20411;-63
2021/12/20 01:43:05;;;;;;;10.00;9.00;;;;;;;8.88;48.54;100671.41;5070963;28;20417;-63
2021/12/20 01:45:32;;;;;;;10.82;9.00;;;;;;;8.99;48.56;100664.34;5070633;28;20402;-62
2021/12/20 01:48:04;;;;;;;10.13;9.07;;;;;;;9.01;48.49;100666.88;5070767;28;21151;-63
2021/12/20 01:50:48;;;;;;;10.52;9.43;;;;;;;9.02;48.41;100673.81;5070781;28;20502;-63
2021/12/20 01:53:17;;;;;;;10.23;9.23;;;;;;;8.95;48.77;100677.91;5071012;28;20415;-62
2021/12/20 01:55:44;;;;;;;11.17;9.00;;;;;;;8.97;48.88;100674.19;5070779;28;20405;-63
2021/12/20 01:58:11;;;;;;;10.75;9.32;;;;;;;8.97;48.99;100671.53;5070921;28;20407;-62
2021/12/20 02:00:56;;;;;;;10.55;9.45;;;;;;;8.94;49.00;100674.44;5071027;28;20417;-62
2021/12/20 02:03:23;;;;;;;11.00;9.80;;;;;;;9.05;48.89;100667.47;5070369;28;20418;-63
2021/12/20 02:05:56;;;;;;;10.88;9.77;;;;;;;8.82;49.40;100668.28;5070446;28;20438;-63
2021/12/20 02:08:25;;;;;;;11.10;9.93;;;;;;;8.88;49.43;100664.34;5070474;28;20591;-64
2021/12/20 02:10:55;;;;;;;12.40;10.95;;;;;;;8.96;49.04;100669.00;5070503;28;20508;-62
2021/12/20 02:13:25;;;;;;;12.27;10.38;;;;;;;8.83;49.57;100669.13;5070563;28;20457;-62
2021/12/20 02:15:52;;;;;;;11.75;10.50;;;;;;;8.93;49.48;100661.34;5070812;28;20411;-63
2021/12/20 02:18:20;;;;;;;11.27;10.18;;;;;;;8.86;49.61;100660.09;5070534;28;21203;-62
2021/12/20 02:20:48;;;;;;;11.47;10.03;;;;;;;8.87;49.66;100654.72;5070599;28;20962;-63
2021/12/20 02:23:15;;;;;;;10.97;9.80;;;;;;;8.86;49.78;100668.91;5070621;28;20489;-62
2021/12/20 02:25:42;;;;;;;10.63;9.63;;;;;;;9.00;49.39;100659.88;5070803;28;20403;-62
2021/12/20 02:28:11;;;;;;;11.10;10.00;;;;;;;8.98;49.75;100667.97;5052688;28;20469;-63
2021/12/20 02:30:48;;;;;;;11.07;9.88;;;;;;;8.98;49.59;100672.38;5070457;28;20441;-63
2021/12/20 02:38:47;;;;;;;10.43;9.43;;;;;;;8.86;49.97;100679.47;5054160;28;20421;-62
2021/12/20 02:41:16;;;;;;;10.73;9.63;;;;;;;8.83;50.09;100672.59;5069890;28;20417;-65
2021/12/20 02:43:52;;;;;;;10.40;9.30;;;;;;;8.89;50.21;100667.81;5069047;28;20418;-63
2021/12/20 02:46:30;;;;;;;11.13;9.70;;;;;;;8.84;49.95;100673.47;5070328;28;20407;-62
2021/12/20 02:48:57;;;;;;;10.60;9.60;;;;;;;8.93;49.88;100680.66;5070135;28;20427;-63
2021/12/20 02:51:27;;;;;;;10.57;9.57;;;;;;;8.91;49.73;100672.00;5069881;28;20421;-62
2021/12/20 02:53:56;;;;;;;10.50;9.50;;;;;;;9.01;49.74;100678.28;5069558;28;21394;-62
2021/12/20 02:56:23;;;;;;;10.35;9.32;;;;;;;8.94;49.93;100677.06;5069633;28;20868;-62
2021/12/20 02:58:50;;;;;;;10.52;9.13;;;;;;;9.05;49.70;100672.75;5069894;28;20449;-62
2021/12/20 03:01:17;;;;;;;9.82;8.63;;;;;;;8.88;50.07;100656.41;5070103;28;20429;-62
2021/12/20 03:03:45;;;;;;;9.50;8.60;;;;;;;8.83;50.02;100664.66;5069798;28;20403;-62
2021/12/20 03:06:14;;;;;;;190.98;112.97;;;;;;;8.83;50.02;100658.56;5069285;28;20451;-62
2021/12/20 03:08:45;;;;;;;13.02;11.63;;;;;;;8.70;50.37;100649.88;5069627;28;20437;-62
2021/12/20 03:11:12;;;;;;;20.15;18.55;;;;;;;8.65;50.40;100646.75;5069360;28;20406;-62
2021/12/20 03:13:40;;;;;;;15.23;13.98;;;;;;;8.63;50.46;100646.84;5069690;28;20494;-62
2021/12/20 03:16:07;;;;;;;12.30;11.30;;;;;;;8.56;50.48;100640.38;5069315;28;20422;-62
2021/12/20 03:18:34;;;;;;;8.55;7.65;;;;;;;8.56;50.44;100637.72;5069517;28;20418;-63
2021/12/20 03:21:01;;;;;;;11.90;10.90;;;;;;;8.55;50.23;100622.84;5069941;28;20411;-62
2021/12/20 03:23:28;;;;;;;8.77;7.97;;;;;;;8.53;50.23;100630.03;5069432;28;20501;-63
2021/12/20 03:25:56;;;;;;;12.23;11.23;;;;;;;8.69;49.88;100646.38;5068949;28;20505;-62
2021/12/20 03:28:23;;;;;;;9.07;8.18;;;;;;;8.76;49.70;100644.97;5068796;28;20515;-63
2021/12/20 03:30:50;;;;;;;9.30;8.27;;;;;;;8.78;49.54;100655.44;5069020;28;20499;-62
2021/12/20 03:33:17;;;;;;;9.50;8.60;;;;;;;8.74;49.45;100651.31;5069266;28;20415;-62
2021/12/20 03:35:44;;;;;;;7.47;6.78;;;;;;;8.70;49.56;100648.09;5068659;28;20494;-62
2021/12/20 03:38:11;;;;;;;34.17;31.17;;;;;;;8.59;49.77;100640.97;5053415;28;20433;-62
2021/12/20 03:40:38;;;;;;;9.70;8.80;;;;;;;8.56;49.88;100641.22;5069025;28;20417;-62
2021/12/20 03:43:10;;;;;;;8.85;8.00;;;;;;;8.47;49.99;100630.50;5068968;28;20410;-62
2021/12/20 03:45:37;;;;;;;9.30;8.30;;;;;;;8.67;49.62;100658.03;5068610;28;20406;-62
2021/12/20 03:48:05;;;;;;;12.00;10.90;;;;;;;8.58;49.91;100659.59;5068431;28;20839;-62
2021/12/20 03:50:32;;;;;;;10.43;8.25;;;;;;;8.72;49.58;100671.72;5068864;28;20489;-63
2021/12/20 03:52:59;;;;;;;7.43;6.72;;;;;;;8.67;49.57;100668.59;5068401;28;20439;-62
2021/12/20 03:55:26;;;;;;;6.50;5.90;;;;;;;8.53;50.19;100670.47;5068508;28;20410;-63
2021/12/20 03:57:53;;;;;;;7.50;6.88;;;;;;;8.53;50.12;100675.75;5068734;28;20407;-62
2021/12/20 04:00:21;;;;;;;7.82;7.13;;;;;;;8.59;49.88;100670.00;5068283;28;20943;-62
2021/12/20 04:02:48;;;;;;;11.13;10.02;;;;;;;8.42;50.14;100676.56;5068356;28;20435;-65
2021/12/20 04:05:16;;;;;;;7.20;6.60;;;;;;;8.41;50.13;100676.66;5068505;28;20411;-62
2021/12/20 04:07:43;;;;;;;6.30;5.70;;;;;;;8.45;50.04;100678.13;5068250;28;20979;-62
2021/12/20 04:10:10;;;;;;;7.82;7.13;;;;;;;8.50;49.98;100683.91;5067924;28;21058;-62
2021/12/20 04:12:37;;;;;;;8.23;7.53;;;;;;;8.43;50.00;100687.94;5068368;28;20414;-63
2021/12/20 04:15:05;;;;;;;7.85;7.05;;;;;;;8.50;49.83;100677.81;5068058;28;20497;-63
2021/12/20 04:17:34;;;;;;;6.20;5.60;;;;;;;8.39;50.06;100697.03;5068598;28;20406;-65
2021/12/20 04:20:02;;;;;;;7.72;6.10;;;;;;;8.34;50.32;100701.81;5068339;28;20411;-63
2021/12/20 04:22:29;;;;;;;8.10;7.30;;;;;;;8.26;50.37;100690.97;5068229;28;20510;-63
2021/12/20 04:24:56;;;;;;;8.37;7.60;;;;;;;8.25;50.38;100684.00;5068238;28;20935;-63
2021/12/20 04:27:23;;;;;;;8.05;7.35;;;;;;;8.31;50.42;100683.56;5050242;28;20489;-63
2021/12/20 04:29:50;;;;;;;6.72;6.13;;;;;;;8.13;50.73;100685.75;5067919;28;20497;-63
2021/12/20 04:32:17;;;;;;;6.22;5.63;;;;;;;8.00;51.35;100680.53;5067831;28;20435;-63
2021/12/20 04:34:45;;;;;;;10.20;9.30;;;;;;;8.04;51.31;100681.97;5068229;28;20564;-63
2021/12/20 04:37:13;;;;;;;10.77;8.48;;;;;;;8.15;50.96;100682.06;5061220;28;20423;-66
2021/12/20 04:39:40;;;;;;;7.28;6.10;;;;;;;8.07;51.23;100691.47;5060050;28;20464;-63
2021/12/20 04:42:08;;;;;;;13.35;12.05;;;;;;;8.07;51.26;100689.69;5067552;28;20439;-63
2021/12/20 04:44:36;;;;;;;9.50;7.93;;;;;;;8.15;51.08;100695.25;5067458;28;20429;-63
2021/12/20 04:47:03;;;;;;;9.40;7.00;;;;;;;7.99;51.35;100697.31;5069324;28;20505;-64
2021/12/20 04:49:30;;;;;;;11.23;10.23;;;;;;;8.01;51.38;100696.25;5069510;28;20474;-64
2021/12/20 04:51:58;;;;;;;9.75;8.00;;;;;;;8.14;51.55;100693.56;5069322;28;20867;-62
2021/12/20 04:54:25;;;;;;;9.43;8.48;;;;;;;8.09;51.40;100682.50;5069481;28;20465;-63
2021/12/20 04:56:52;;;;;;;6.05;5.45;;;;;;;7.88;51.86;100692.81;5069823;28;20407;-63
2021/12/20 04:59:19;;;;;;;7.30;6.70;;;;;;;7.91;51.92;100683.84;5069572;28;20498;-63
2021/12/20 05:01:46;;;;;;;5.45;4.97;;;;;;;8.00;51.52;100688.44;5069205;28;20422;-63
2021/12/20 05:04:13;;;;;;;5.63;5.13;;;;;;;8.10;51.36;100688.63;5069528;28;20415;-63
2021/12/20 05:06:40;;;;;;;6.20;5.40;;;;;;;8.06;51.50;100697.72;5068812;28;20407;-63
2021/12/20 05:09:09;;;;;;;6.18;5.57;;;;;;;7.95;51.46;100688.78;5069197;28;20517;-63
2021/12/20 05:11:35;;;;;;;5.53;5.03;;;;;;;7.84;51.86;100696.59;5069157;28;20410;-63
2021/12/20 05:14:03;;;;;;;8.68;7.88;;;;;;;7.92;51.46;100693.44;5067792;28;20980;-62
2021/12/20 05:16:30;;;;;;;5.00;4.47;;;;;;;7.72;52.06;100692.22;5069175;28;20434;-62
2021/12/20 05:18:57;;;;;;;8.75;7.90;;;;;;;7.78;51.94;100691.78;5069018;28;20409;-62
2021/12/20 05:21:24;;;;;;;6.32;5.50;;;;;;;7.65;52.13;100697.09;5068851;28;20912;-63
2021/12/20 05:23:52;;;;;;;7.18;6.47;;;;;;;7.66;52.29;100706.66;5068663;28;20484;-63
2021/12/20 05:26:20;;;;;;;6.90;6.20;;;;;;;7.74;51.95;100699.06;5069432;28;20413;-62
2021/12/20 05:28:47;;;;;;;8.23;7.20;;;;;;;7.71;52.02;100709.84;5069074;28;20434;-62
2021/12/20 05:31:14;;;;;;;6.10;5.47;;;;;;;7.68;52.10;100709.19;5069345;28;20437;-63
2021/12/20 05:33:42;;;;;;;6.07;4.80;;;;;;;7.59;52.25;100705.44;5069089;28;20433;-63
2021/12/20 05:36:09;;;;;;;7.93;7.22;;;;;;;7.62;51.76;100703.44;5068912;28;20422;-62
2021/12/20 05:38:36;;;;;;;6.10;5.50;;;;;;;7.54;52.16;100704.91;5054604;28;20561;-63
2021/12/20 05:41:02;;;;;;;6.72;6.13;;;;;;;7.50;52.26;100712.19;5065845;28;20490;-63
2021/12/20 05:43:31;;;;;;;17.75;16.25;;;;;;;7.50;52.31;100719.25;5068415;28;20415;-62
2021/12/20 05:45:58;;;;;;;5.65;5.13;;;;;;;7.47;52.61;100719.47;5069090;28;20494;-62
2021/12/20 05:48:25;;;;;;;7.68;6.97;;;;;;;7.56;52.19;100729.38;5068719;28;20529;-63
2021/12/20 05:50:52;;;;;;;12.65;11.75;;;;;;;7.44;52.44;100725.81;5069104;28;20498;-63
2021/12/20 05:53:19;;;;;;;14.63;13.43;;;;;;;7.48;52.40;100721.16;5068445;28;20493;-63
2021/12/20 05:55:46;;;;;;;34.88;26.65;;;;;;;7.41;52.48;100726.84;5068797;28;20430;-63
2021/12/20 05:58:13;;;;;;;89.90;62.70;;;;;;;7.40;52.40;100722.53;5068862;28;20518;-63
2021/12/20 06:00:41;;;;;;;24.45;20.67;;;;;;;7.26;52.90;100722.66;5065706;28;20753;-63
2021/12/20 06:03:10;;;;;;;24.77;20.58;;;;;;;7.32;52.68;100724.88;5068160;28;20411;-63
2021/12/20 06:05:38;;;;;;;14.55;11.45;;;;;;;7.27;52.78;100734.88;5068418;28;20417;-62
2021/12/20 06:08:05;;;;;;;9.02;8.05;;;;;;;7.39;52.26;100744.56;5068122;28;20406;-62
2021/12/20 06:10:32;;;;;;;12.13;10.90;;;;;;;7.39;52.23;100744.56;5068059;28;20497;-62
2021/12/20 06:12:59;;;;;;;10.70;9.60;;;;;;;7.56;51.75;100746.03;5068292;28;20410;-63
2021/12/20 06:15:26;;;;;;;35.78;32.58;;;;;;;8.87;48.90;100752.47;5066994;28;20415;-63
2021/12/20 06:17:54;;;;;;;7.73;6.93;;;;;;;9.89;46.59;100755.22;5067105;28;20422;-62
2021/12/20 06:20:21;;;;;;;8.95;8.05;;;;;;;10.86;44.09;100745.59;5071480;28;20433;-63
2021/12/20 06:22:48;;;;;;;27.17;24.23;;;;;;;10.65;43.97;100755.34;5072217;28;20500;-63
2021/12/20 06:25:16;;;;;;;22.70;20.33;;;;;;;9.93;45.68;100751.38;5072374;28;20411;-63
2021/12/20 06:27:43;;;;;;;24.33;21.23;;;;;;;11.99;41.62;100755.44;5072403;28;20557;-62
2021/12/20 06:30:12;;;;;;;17.73;15.93;;;;;;;12.82;39.54;100761.25;5072037;28;20498;-63
2021/12/20 06:32:41;;;;;;;12.40;11.05;;;;;;;11.20;42.08;100751.53;5072254;28;20502;-63
2021/12/20 06:35:10;;;;;;;8.80;7.38;;;;;;;10.20;44.09;100746.53;5072244;28;20415;-63
2021/12/20 06:37:38;;;;;;;10.60;8.38;;;;;;;11.93;40.75;100748.84;5071858;28;20868;-63
2021/12/20 06:40:06;;;;;;;8.23;6.70;;;;;;;13.87;37.36;100754.16;5054495;28;20784;-63
2021/12/20 06:42:37;;;;;;;9.30;8.40;;;;;;;15.11;35.00;100765.09;5071808;28;20600;-63
2021/12/20 06:45:06;;;;;;;9.43;7.93;;;;;;;16.30;32.95;100775.06;5071461;28;20415;-63
2021/12/20 06:47:34;;;;;;;28.25;22.67;;;;;;;17.20;31.24;100772.50;5072058;28;20479;-63
2021/12/20 06:50:01;;;;;;;20.15;18.17;;;;;;;17.71;30.12;100785.63;5071800;28;20954;-63
2021/12/20 06:52:30;;;;;;;9.90;9.00;;;;;;;16.78;31.47;100781.50;5071953;28;20425;-63
2021/12/20 06:54:57;;;;;;;5.63;5.13;;;;;;;18.86;28.53;100780.53;5071582;28;20434;-64
2021/12/20 06:57:24;;;;;;;6.70;6.10;;;;;;;20.11;26.63;100789.84;5072137;28;20486;-64
2021/12/20 06:59:50;;;;;;;7.15;6.55;;;;;;;19.68;27.18;100795.88;5071679;28;20881;-64
2021/12/20 07:02:17;;;;;;;7.45;5.82;;;;;;;21.35;25.33;100797.72;5071253;28;20407;-64
2021/12/20 07:04:44;;;;;;;11.77;10.57;;;;;;;22.16;24.38;100791.78;5071355;28;20922;-64
2021/12/20 07:07:11;;;;;;;9.50;8.60;;;;;;;22.35;23.84;100787.53;5071298;28;20502;-64
2021/12/20 07:09:40;;;;;;;8.27;7.50;;;;;;;20.84;25.14;100790.66;5053432;28;20430;-64
2021/12/20 07:12:08;;;;;;;6.60;6.00;;;;;;;17.13;29.82;100793.75;5071191;28;20504;-63
2021/12/20 07:14:35;;;;;;;6.80;5.60;;;;;;;15.66;31.88;100794.13;5071722;28;20406;-63
2021/12/20 07:17:01;;;;;;;9.45;6.97;;;;;;;14.45;34.18;100795.63;5070992;28;20435;-63
2021/12/20 07:19:28;;;;;;;21.55;6.30;;;;;;;13.70;35.83;100793.88;5071387;28;20604;-63
2021/12/20 07:21:55;;;;;;;6.82;5.10;;;;;;;13.46;36.30;100799.69;5071270;28;20493;-64
2021/12/20 07:24:22;;;;;;;5.65;4.22;;;;;;;13.25;36.72;100802.50;5071278;28;20411;-63
2021/12/20 07:26:50;;;;;;;6.83;5.00;;;;;;;14.14;35.28;100806.59;5071221;28;20411;-63
2021/12/20 07:29:18;;;;;;;7.65;5.45;;;;;;;15.91;32.68;100813.00;5070660;28;20521;-63
2021/12/20 07:31:45;;;;;;;8.13;5.20;;;;;;;16.01;32.48;100805.69;5070619;28;20967;-63
2021/12/20 07:34:12;;;;;;;10.73;5.75;;;;;;;18.34;29.05;100799.97;5070872;28;20605;-64
2021/12/20 07:36:39;;;;;;;6.18;5.40;;;;;;;15.51;32.47;100790.38;5070666;28;20502;-63
2021/12/20 07:39:07;;;;;;;9.50;6.57;;;;;;;14.76;33.95;100796.13;5070950;28;20490;-63
2021/12/20 07:41:34;;;;;;;7.88;5.75;;;;;;;14.49;34.42;100800.50;5070867;28;20414;-63
2021/12/20 07:44:02;;;;;;;6.47;5.05;;;;;;;14.12;34.87;100797.91;5070429;28;20853;-63
2021/12/20 07:46:29;;;;;;;9.90;6.30;;;;;;;13.59;35.63;100815.38;5070710;28;20443;-63
2021/12/20 07:48:57;;;;;;;9.25;7.07;;;;;;;13.91;35.65;100822.09;5070448;28;20494;-64
2021/12/20 07:51:24;;;;;;;8.23;6.43;;;;;;;14.07;35.15;100829.47;5070767;28;20411;-63
2021/12/20 07:53:51;;;;;;;11.13;9.00;;;;;;;14.94;33.72;100839.66;5070741;28;20415;-63
2021/12/20 07:56:18;;;;;;;8.03;5.83;;;;;;;15.64;32.83;100844.19;5070718;28;20411;-63
2021/12/20 07:58:45;;;;;;;15.48;12.02;;;;;;;18.51;28.71;100851.66;5070249;28;20912;-63
2021/12/20 08:01:15;;;;;;;12.40;9.27;;;;;;;17.27;29.79;100852.97;5070639;28;20577;-64
2021/12/20 08:03:42;;;;;;;7.93;6.47;;;;;;;16.40;31.81;100851.47;5070517;28;20476;-65
2021/12/20 08:06:10;;;;;;;8.73;6.88;;;;;;;16.03;31.78;100862.50;5070493;28;20488;-64
2021/12/20 08:08:37;;;;;;;11.80;8.90;;;;;;;15.30;32.70;100860.97;5070309;28;20935;-63
2021/12/20 08:11:04;;;;;;;12.07;7.00;;;;;;;20.04;27.09;100870.44;5070256;28;20403;-63
2021/12/20 08:13:32;;;;;;;8.00;5.18;;;;;;;23.17;22.97;100872.06;5070237;28;20422;-63
2021/12/20 08:15:59;;;;;;;10.40;5.80;;;;;;;20.10;25.61;100875.09;5070209;28;20407;-64
2021/12/20 08:18:28;;;;;;;6.70;5.17;;;;;;;17.14;29.68;100873.06;5070208;28;20502;-64
2021/12/20 08:20:55;;;;;;;6.25;5.65;;;;;;;15.89;31.45;100874.59;5070148;28;20498;-64
2021/12/20 08:23:22;;;;;;;9.30;5.63;;;;;;;18.77;28.33;100875.50;5069544;28;20908;-64
2021/12/20 08:25:49;;;;;;;8.65;6.63;;;;;;;23.14;22.76;100877.91;5070258;28;20414;-64
2021/12/20 08:28:16;;;;;;;6.13;5.07;;;;;;;25.12;20.27;100883.03;5069681;28;20503;-64
2021/12/20 08:30:43;;;;;;;6.15;5.05;;;;;;;26.37;19.09;100886.69;5069476;28;20431;-64
2021/12/20 08:33:10;;;;;;;7.57;5.72;;;;;;;27.94;17.77;100884.75;5070171;28;20494;-64
2021/12/20 08:35:38;;;;;;;7.13;5.90;;;;;;;29.44;16.50;100892.00;5069561;28;20415;-64
2021/12/20 08:38:05;;;;;;;7.22;5.85;;;;;;;30.62;15.46;100894.50;5069566;28;20407;-62
2021/12/20 08:40:32;;;;;;;6.07;4.95;;;;;;;30.39;15.37;100892.03;5069432;28;20498;-62
2021/12/20 08:42:59;;;;;;;7.60;5.40;;;;;;;30.09;15.56;100910.50;5068996;28;20489;-63
2021/12/20 08:45:26;;;;;;;7.53;4.97;;;;;;;26.54;18.01;100906.75;5069438;28;20501;-62
2021/12/20 08:47:53;;;;;;;6.25;4.63;;;;;;;27.43;16.99;100916.19;5069568;28;20414;-63
2021/12/20 08:50:22;;;;;;;8.20;5.72;;;;;;;26.46;17.84;100917.06;5069352;28;20510;-63
2021/12/20 08:52:51;;;;;;;12.27;8.70;;;;;;;27.46;17.35;100913.00;5069446;28;20415;-63
2021/12/20 08:55:18;;;;;;;9.80;5.63;;;;;;;28.08;16.57;100920.72;5069536;28;20485;-63
2021/12/20 08:57:46;;;;;;;6.70;5.27;;;;;;;30.35;14.91;100921.78;5069403;28;20486;-64
2021/12/20 09:00:16;;;;;;;7.35;6.13;;;;;;;32.38;13.38;100922.16;5069340;28;20413;-63
2021/12/20 09:02:44;;;;;;;7.55;3.92;;;;;;;24.58;18.98;100893.31;5069310;28;20585;-63
2021/12/20 09:05:11;;;;;;;7.72;4.07;;;;;;;20.12;23.27;100899.94;5069462;28;20439;-63
2021/12/20 09:07:40;;;;;;;8.25;5.20;;;;;;;24.20;19.55;100910.28;5069160;28;20490;-63
2021/12/20 09:10:10;;;;;;;6.53;4.60;;;;;;;21.99;21.29;100916.22;5069428;28;20426;-63
2021/12/20 09:12:37;;;;;;;8.48;4.90;;;;;;;21.25;22.97;100911.25;5069016;28;20411;-66
2021/12/20 09:15:06;;;;;;;10.57;5.87;;;;;;;22.34;21.95;100904.63;5069326;28;20446;-65
2021/12/20 09:17:33;;;;;;;8.60;6.55;;;;;;;26.37;17.86;100889.38;5069168;28;20407;-63
2021/12/20 09:20:00;;;;;;;10.02;7.60;;;;;;;26.53;17.24;100901.53;5068896;28;20502;-64
2021/12/20 09:22:29;;;;;;;9.43;6.03;;;;;;;25.19;18.33;100891.91;5069246;28;20499;-64
2021/12/20 09:24:56;;;;;;;7.53;6.20;;;;;;;24.99;18.58;100891.22;5068863;28;20867;-64
2021/12/20 09:27:24;;;;;;;8.77;5.78;;;;;;;21.83;21.92;100891.44;5069107;28;20446;-65
2021/12/20 09:29:51;;;;;;;8.68;6.22;;;;;;;23.96;19.57;100894.75;5069235;28;20423;-64
2021/12/20 09:32:18;;;;;;;8.07;5.10;;;;;;;23.30;20.50;100887.50;5069283;28;20486;-64
2021/12/20 09:34:45;;;;;;;7.90;4.97;;;;;;;26.85;16.98;100885.03;5068839;28;20413;-65
2021/12/20 09:37:12;;;;;;;8.80;5.38;;;;;;;28.63;15.58;100881.28;5069089;28;20502;-65
2021/12/20 09:39:39;;;;;;;7.75;4.72;;;;;;;29.44;14.54;100898.31;5068734;28;20411;-64
2021/12/20 09:42:09;;;;;;;7.37;5.23;;;;;;;29.93;14.10;100893.06;5069241;28;20406;-65
2021/12/20 09:44:38;;;;;;;9.83;8.27;;;;;;;29.65;14.18;100894.00;5069100;28;20506;-65
2021/12/20 09:47:05;;;;;;;9.73;5.78;;;;;;;28.68;14.72;100900.47;5068787;28;20422;-64
2021/12/20 09:49:33;;;;;;;7.47;4.50;;;;;;;29.41;14.33;100898.78;5068489;28;20505;-64
2021/12/20 09:52:00;;;;;;;5.13;3.40;;;;;;;29.75;13.78;100894.16;5068687;28;20446;-64
2021/12/20 09:54:28;;;;;;;6.25;3.60;;;;;;;30.32;13.61;100908.63;5072236;28;20489;-64
2021/12/20 09:56:58;;;;;;;5.00;3.97;;;;;;;31.04;13.12;100917.63;5072322;28;20501;-65
2021/12/20 09:59:27;;;;;;;6.78;4.30;;;;;;;31.38;13.01;100917.41;5072295;28;20502;-65
2021/12/20 10:01:57;;;;;;;6.80;4.00;;;;;;;31.26;12.68;100920.31;5072628;28;20995;-65
2021/12/20 10:04:25;;;;;;;7.88;5.43;;;;;;;30.11;13.52;100916.53;5072472;28;20480;-65
2021/12/20 10:06:54;;;;;;;21.10;17.02;;;;;;;29.55;14.13;100923.88;5072406;28;20498;-64
2021/12/20 10:09:26;;;;;;;7.18;4.32;;;;;;;26.43;16.38;100910.22;5072272;28;21050;-64
2021/12/20 10:12:15;;;;;;;6.75;4.80;;;;;;;27.57;15.52;100920.34;5072663;28;20438;-64
2021/12/20 10:14:57;;;;;;;9.80;6.00;;;;;;;28.84;14.46;100907.06;5072553;28;20494;-64
2021/12/20 10:17:28;;;;;;;10.18;5.45;;;;;;;29.38;14.02;100914.84;5072122;28;20903;-64
2021/12/20 10:19:55;;;;;;;7.78;4.50;;;;;;;25.24;16.12;100918.41;5072116;28;20445;-63
2021/12/20 10:22:25;;;;;;;8.98;4.53;;;;;;;27.11;14.51;100898.25;5072334;28;20432;-64
2021/12/20 10:24:52;;;;;;;7.20;3.95;;;;;;;26.70;14.35;100905.31;5072213;28;20490;-64
2021/12/20 10:27:31;;;;;;;6.88;5.03;;;;;;;27.18;14.54;100911.72;5072294;28;20808;-65
2021/12/20 10:29:59;;;;;;;9.25;5.47;;;;;;;27.57;13.98;100904.88;5071924;28;20427;-64
2021/12/20 10:32:43;;;;;;;8.95;3.70;;;;;;;26.60;14.18;100902.28;5071685;28;20908;-64
2021/12/20 10:35:33;;;;;;;7.82;4.95;;;;;;;27.57;13.82;100895.84;5070270;28;20500;-63
2021/12/20 10:38:02;;;;;;;12.80;8.55;;;;;;;28.15;13.65;100896.94;5071864;28;20501;-64
2021/12/20 10:40:29;;;;;;;12.93;5.60;;;;;;;27.04;14.07;100913.81;5072191;28;20490;-64
2021/12/20 10:42:57;;;;;;;10.57;5.88;;;;;;;27.41;14.17;100899.25;5071791;28;20451;-65
2021/12/20 10:45:27;;;;;;;14.02;6.55;;;;;;;26.50;14.36;100891.97;5071666;28;20498;-64
2021/12/20 10:47:56;;;;;;;9.48;6.10;;;;;;;26.89;14.43;100895.22;5071626;28;20517;-65
2021/12/20 10:50:27;;;;;;;9.70;5.27;;;;;;;26.39;14.54;100898.97;5071665;28;20426;-64
2021/12/20 10:52:56;;;;;;;8.27;7.30;;;;;;;26.04;14.97;100897.94;5071486;28;20911;-64
2021/12/20 10:55:40;;;;;;;9.32;7.78;;;;;;;26.61;14.60;100905.84;5071743;28;20426;-65
2021/12/20 10:58:29;;;;;;;8.30;5.35;;;;;;;25.73;15.26;100908.63;5071396;28;20485;-64
2021/12/20 11:01:18;;;;;;;6.38;5.20;;;;;;;25.34;15.30;100921.44;5071469;28;20788;-65
2021/12/20 11:03:59;;;;;;;6.53;5.68;;;;;;;25.72;15.05;100915.09;5071110;28;20498;-64
2021/12/20 11:06:40;;;;;;;6.75;5.65;;;;;;;25.07;15.51;100920.78;5070810;28;20407;-64
2021/12/20 11:09:15;;;;;;;6.80;4.45;;;;;;;24.19;16.14;100908.66;5071307;28;20421;-64
2021/12/20 11:11:49;;;;;;;11.95;5.53;;;;;;;24.35;16.55;100917.31;5071705;28;20427;-64
2021/12/20 11:14:17;;;;;;;8.20;6.55;;;;;;;23.28;16.65;100917.44;5071534;28;20409;-64
2021/12/20 11:16:46;;;;;;;8.68;6.43;;;;;;;22.17;17.71;100914.88;5070864;28;20411;-64
2021/12/20 11:19:17;;;;;;;8.43;6.50;;;;;;;21.75;18.13;100913.97;5070826;28;20413;-64
2021/12/20 11:21:53;;;;;;;6.68;3.53;;;;;;;20.98;18.76;100910.97;5071282;28;20490;-64
2021/12/20 11:24:23;;;;;;;6.75;3.55;;;;;;;20.20;18.92;100912.47;5071186;28;20486;-64
2021/12/20 11:26:51;;;;;;;8.63;6.22;;;;;;;19.99;19.54;100899.72;5071005;28;20482;-64
2021/12/20 11:29:18;;;;;;;7.57;4.60;;;;;;;19.24;20.34;100909.44;5071145;28;20525;-64
2021/12/20 11:31:46;;;;;;;9.60;4.60;;;;;;;19.31;20.51;100917.63;5070691;28;20845;-64
2021/12/20 11:34:15;;;;;;;10.50;5.00;;;;;;;18.84;20.96;100915.94;5071033;28;20411;-64
2021/12/20 11:36:43;;;;;;;10.80;5.73;;;;;;;17.74;21.84;100924.59;5071015;28;20407;-64
2021/12/20 11:39:10;;;;;;;8.68;4.85;;;;;;;16.81;22.97;100913.13;5070804;28;20424;-65